Data Viewer
| City | State | Eastern Time | Source | Daily Temp Max | Daily Temp Min | Daily Dew Point Max | Daily Dew Point Min | Daily RH Max | Daily Min RH | Daily BP Max | Daily BP Min | Daily Precip | Daily Wind Max | Daily Wind Max Dir |
|---|---|---|---|---|---|---|---|---|---|---|---|---|---|---|
| Charlotteburg | NJ | 2026-04-05 | Mesonet | 55 | 39 | 55 | 32 | 100 | 64 | 30.12 | 29.73 | 0.27 | 22 | WSW |
| Charlotteburg | NJ | 2026-04-21 | Mesonet | 53 | 25 | 32 | 11 | 89 | 21 | 30.35 | 30.16 | 0.00 | 17 | SSE |
| Charlotteburg | NJ | 2026-05-04 | Mesonet | 72 | 43 | 48 | 33 | 75 | 32 | 29.91 | 29.77 | 0.00 | 24 | W |
| Charlotteburg | NJ | 2026-05-03 | Mesonet | 59 | 40 | 37 | 24 | 80 | 28 | 29.88 | 29.80 | 0.00 | 26 | WSW |
| Charlotteburg | NJ | 2026-05-02 | Mesonet | 60 | 44 | 47 | 28 | 100 | 34 | 29.89 | 29.81 | 0.04 | 15 | W |
| Charlotteburg | NJ | 2026-05-01 | Mesonet | 65 | 39 | 47 | 33 | 89 | 36 | 29.91 | 29.80 | 0.00 | 19 | W |
| Charlotteburg | NJ | 2026-04-30 | Mesonet | 59 | 46 | 52 | 38 | 100 | 55 | 29.83 | 29.71 | 0.25 | 16 | W |
| Charlotteburg | NJ | 2026-04-29 | Mesonet | 65 | 46 | 49 | 39 | 100 | 51 | 30.05 | 29.78 | 0.28 | 14 | SE |
| Charlotteburg | NJ | 2026-04-28 | Mesonet | 65 | 38 | 51 | 35 | 99 | 39 | 30.21 | 30.01 | 0.00 | 12 | W |
| Charlotteburg | NJ | 2026-04-27 | Mesonet | 71 | 36 | 48 | 35 | 100 | 31 | 30.24 | 30.14 | 0.01 | 12 | ENE |
| Charlotteburg | NJ | 2026-04-26 | Mesonet | 62 | 39 | 47 | 39 | 100 | 52 | 30.16 | 29.99 | 0.04 | 13 | NNW |
| Charlotteburg | NJ | 2026-04-25 | Mesonet | 49 | 38 | 43 | 36 | 100 | 64 | 30.04 | 29.90 | 1.35 | 12 | SE |
| Charlotteburg | NJ | 2026-04-24 | Mesonet | 70 | 48 | 46 | 27 | 71 | 23 | 29.91 | 29.75 | 0.00 | 16 | NW |
| Charlotteburg | NJ | 2026-04-23 | Mesonet | 71 | 39 | 50 | 32 | 100 | 27 | 29.96 | 29.83 | 0.01 | 22 | WSW |
| Charlotteburg | NJ | 2026-04-22 | Mesonet | 53 | 40 | 46 | 31 | 100 | 65 | 30.20 | 29.94 | 0.08 | 10 | SSE |
| Charlotteburg | NJ | 2026-04-20 | Mesonet | 47 | 30 | 37 | 19 | 100 | 35 | 30.28 | 30.02 | 0.00 | 23 | WNW |
| Charlotteburg | NJ | 2026-04-06 | Mesonet | 53 | 37 | 34 | 24 | 80 | 35 | 30.05 | 29.86 | 0.00 | 26 | WSW |
| Charlotteburg | NJ | 2026-04-19 | Mesonet | 49 | 35 | 49 | 32 | 100 | 60 | 30.05 | 29.73 | 0.13 | 24 | NW |
| Charlotteburg | NJ | 2026-04-18 | Mesonet | 69 | 49 | 59 | 49 | 100 | 56 | 30.05 | 29.88 | 0.00 | 15 | SSE |
| Charlotteburg | NJ | 2026-04-17 | Mesonet | 78 | 59 | 67 | 56 | 100 | 49 | 30.00 | 29.72 | 0.58 | 17 | NNW |
| Charlotteburg | NJ | 2026-04-16 | Mesonet | 88 | 64 | 67 | 58 | 88 | 38 | 29.94 | 29.72 | 0.02 | 26 | WSW |
| Charlotteburg | NJ | 2026-04-15 | Mesonet | 87 | 58 | 68 | 58 | 100 | 45 | 29.97 | 29.84 | 0.00 | 21 | W |
| Charlotteburg | NJ | 2026-04-14 | Mesonet | 86 | 53 | 64 | 53 | 100 | 40 | 30.02 | 29.81 | 0.08 | 28 | WSW |
| Charlotteburg | NJ | 2026-04-13 | Mesonet | 78 | 42 | 59 | 37 | 96 | 47 | 30.25 | 29.90 | 0.00 | 29 | W |
| Charlotteburg | NJ | 2026-04-12 | Mesonet | 58 | 32 | 41 | 26 | 90 | 38 | 30.48 | 30.25 | 0.00 | 15 | SW |
| Charlotteburg | NJ | 2026-04-11 | Mesonet | 61 | 45 | 54 | 27 | 88 | 31 | 30.35 | 30.04 | 0.00 | 25 | NW |
| Charlotteburg | NJ | 2026-04-10 | Mesonet | 70 | 35 | 50 | 35 | 100 | 42 | 30.40 | 30.08 | 0.00 | 14 | S |
| Charlotteburg | NJ | 2026-04-09 | Mesonet | 57 | 25 | 40 | 21 | 99 | 37 | 30.55 | 30.38 | 0.00 | 15 | SW |
| Charlotteburg | NJ | 2026-04-08 | Mesonet | 53 | 23 | 25 | 13 | 72 | 25 | 30.57 | 30.43 | 0.00 | 18 | NW |
| Charlotteburg | NJ | 2026-04-07 | Mesonet | 50 | 29 | 36 | 14 | 82 | 31 | 30.43 | 30.01 | 0.00 | 31 | W |
| Charlotteburg | NJ | 2026-05-05 | Mesonet | 83 | 51 | 59 | 43 | 94 | 32 | 29.86 | 29.73 | 0.00 | 24 | SW |
data collection created in 0.010337114334106 (queried in 0.002741) rendered in: 6.9856643676758E-5

